sensor_id;sensor_type;location;lat;lon;timestamp;temperature;humidity
2439;DHT22;14509;47.992;7.848;2023-07-29T00:01:41;22.80;70.40
2439;DHT22;14509;47.992;7.848;2023-07-29T00:03:43;22.50;70.20
2439;DHT22;14509;47.992;7.848;2023-07-29T00:05:47;22.90;70.40
2439;DHT22;14509;47.992;7.848;2023-07-29T00:07:48;22.70;70.00
2439;DHT22;14509;47.992;7.848;2023-07-29T00:09:50;22.70;69.70
2439;DHT22;14509;47.992;7.848;2023-07-29T00:11:51;22.80;69.70
2439;DHT22;14509;47.992;7.848;2023-07-29T00:13:53;22.80;69.60
2439;DHT22;14509;47.992;7.848;2023-07-29T00:15:55;22.80;69.50
2439;DHT22;14509;47.992;7.848;2023-07-29T00:17:56;22.70;69.40
2439;DHT22;14509;47.992;7.848;2023-07-29T00:19:58;22.80;69.40
2439;DHT22;14509;47.992;7.848;2023-07-29T00:22:01;22.70;69.50
2439;DHT22;14509;47.992;7.848;2023-07-29T00:24:03;22.70;69.80
2439;DHT22;14509;47.992;7.848;2023-07-29T00:26:05;22.60;70.30
2439;DHT22;14509;47.992;7.848;2023-07-29T00:28:07;23.30;71.50
2439;DHT22;14509;47.992;7.848;2023-07-29T00:30:10;22.60;71.40
2439;DHT22;14509;47.992;7.848;2023-07-29T00:32:12;22.60;70.70
2439;DHT22;14509;47.992;7.848;2023-07-29T00:34:13;22.60;70.70
2439;DHT22;14509;47.992;7.848;2023-07-29T00:36:19;23.00;70.90
2439;DHT22;14509;47.992;7.848;2023-07-29T00:38:22;22.60;70.40
2439;DHT22;14509;47.992;7.848;2023-07-29T00:40:24;22.70;70.40
2439;DHT22;14509;47.992;7.848;2023-07-29T00:42:26;22.70;70.30
2439;DHT22;14509;47.992;7.848;2023-07-29T00:44:28;22.60;70.20
2439;DHT22;14509;47.992;7.848;2023-07-29T00:46:36;22.60;70.20
2439;DHT22;14509;47.992;7.848;2023-07-29T00:48:39;22.70;70.40
2439;DHT22;14509;47.992;7.848;2023-07-29T00:50:41;22.60;70.10
2439;DHT22;14509;47.992;7.848;2023-07-29T00:52:43;22.70;70.20
2439;DHT22;14509;47.992;7.848;2023-07-29T00:54:47;22.80;70.00
2439;DHT22;14509;47.992;7.848;2023-07-29T00:56:49;22.80;69.80
2439;DHT22;14509;47.992;7.848;2023-07-29T00:58:51;22.80;69.60
2439;DHT22;14509;47.992;7.848;2023-07-29T01:00:59;22.80;69.50
2439;DHT22;14509;47.992;7.848;2023-07-29T01:03:01;22.80;69.40
2439;DHT22;14509;47.992;7.848;2023-07-29T01:05:03;22.90;70.20
2439;DHT22;14509;47.992;7.848;2023-07-29T01:07:11;22.80;69.20
2439;DHT22;14509;47.992;7.848;2023-07-29T01:09:22;22.80;69.20
2439;DHT22;14509;47.992;7.848;2023-07-29T01:11:35;23.00;69.40
2439;DHT22;14509;47.992;7.848;2023-07-29T01:13:47;22.80;69.20
2439;DHT22;14509;47.992;7.848;2023-07-29T01:15:54;22.80;69.10
2439;DHT22;14509;47.992;7.848;2023-07-29T01:18:02;22.90;69.20
2439;DHT22;14509;47.992;7.848;2023-07-29T01:20:08;22.80;69.00
2439;DHT22;14509;47.992;7.848;2023-07-29T01:22:11;22.90;69.10
2439;DHT22;14509;47.992;7.848;2023-07-29T01:24:14;22.90;69.00
2439;DHT22;14509;47.992;7.848;2023-07-29T01:26:16;22.90;68.90
2439;DHT22;14509;47.992;7.848;2023-07-29T01:28:18;22.90;68.80
2439;DHT22;14509;47.992;7.848;2023-07-29T01:30:21;22.90;68.60
2439;DHT22;14509;47.992;7.848;2023-07-29T01:32:28;23.00;68.80
2439;DHT22;14509;47.992;7.848;2023-07-29T01:34:37;22.80;68.70
2439;DHT22;14509;47.992;7.848;2023-07-29T01:36:42;22.80;68.70
2439;DHT22;14509;47.992;7.848;2023-07-29T01:38:45;22.70;68.80
2439;DHT22;14509;47.992;7.848;2023-07-29T01:40:50;22.70;69.00
2439;DHT22;14509;47.992;7.848;2023-07-29T01:42:53;22.70;69.10
2439;DHT22;14509;47.992;7.848;2023-07-29T01:44:55;22.60;68.90
2439;DHT22;14509;47.992;7.848;2023-07-29T01:46:56;22.70;69.00
2439;DHT22;14509;47.992;7.848;2023-07-29T01:48:58;22.70;69.10
2439;DHT22;14509;47.992;7.848;2023-07-29T01:51:00;22.90;69.30
2439;DHT22;14509;47.992;7.848;2023-07-29T01:53:02;22.80;69.10
2439;DHT22;14509;47.992;7.848;2023-07-29T01:55:05;22.80;68.90
2439;DHT22;14509;47.992;7.848;2023-07-29T01:57:08;22.90;68.90
2439;DHT22;14509;47.992;7.848;2023-07-29T01:59:10;22.90;68.40
2439;DHT22;14509;47.992;7.848;2023-07-29T02:01:14;23.90;69.40
2439;DHT22;14509;47.992;7.848;2023-07-29T02:03:16;23.00;68.10
2439;DHT22;14509;47.992;7.848;2023-07-29T02:05:18;23.00;68.20
2439;DHT22;14509;47.992;7.848;2023-07-29T02:07:20;23.00;68.10
2439;DHT22;14509;47.992;7.848;2023-07-29T02:09:22;23.00;68.10
2439;DHT22;14509;47.992;7.848;2023-07-29T02:11:26;23.00;68.00
2439;DHT22;14509;47.992;7.848;2023-07-29T02:13:30;23.00;67.90
2439;DHT22;14509;47.992;7.848;2023-07-29T02:15:32;24.30;69.30
2439;DHT22;14509;47.992;7.848;2023-07-29T02:17:34;23.10;68.10
2439;DHT22;14509;47.992;7.848;2023-07-29T02:19:36;23.10;68.10
2439;DHT22;14509;47.992;7.848;2023-07-29T02:21:38;23.00;68.00
2439;DHT22;14509;47.992;7.848;2023-07-29T02:23:39;23.00;67.90
2439;DHT22;14509;47.992;7.848;2023-07-29T02:25:41;23.10;68.10
2439;DHT22;14509;47.992;7.848;2023-07-29T02:27:43;23.90;68.90
2439;DHT22;14509;47.992;7.848;2023-07-29T02:29:46;23.10;67.90
2439;DHT22;14509;47.992;7.848;2023-07-29T02:31:48;23.20;68.00
2439;DHT22;14509;47.992;7.848;2023-07-29T02:33:50;23.10;67.90
2439;DHT22;14509;47.992;7.848;2023-07-29T02:35:52;23.00;68.10
2439;DHT22;14509;47.992;7.848;2023-07-29T02:37:54;23.10;68.30
2439;DHT22;14509;47.992;7.848;2023-07-29T02:39:58;23.10;68.10
2439;DHT22;14509;47.992;7.848;2023-07-29T02:41:59;23.10;67.90
2439;DHT22;14509;47.992;7.848;2023-07-29T02:44:02;23.10;67.90
2439;DHT22;14509;47.992;7.848;2023-07-29T02:46:05;23.10;68.00
2439;DHT22;14509;47.992;7.848;2023-07-29T02:48:07;23.10;68.10
2439;DHT22;14509;47.992;7.848;2023-07-29T02:50:09;23.10;68.20
2439;DHT22;14509;47.992;7.848;2023-07-29T02:52:11;23.00;68.30
2439;DHT22;14509;47.992;7.848;2023-07-29T02:54:13;23.00;68.50
2439;DHT22;14509;47.992;7.848;2023-07-29T02:56:15;22.90;68.40
2439;DHT22;14509;47.992;7.848;2023-07-29T02:58:17;22.90;68.50
2439;DHT22;14509;47.992;7.848;2023-07-29T03:00:18;22.90;68.80
2439;DHT22;14509;47.992;7.848;2023-07-29T03:02:22;22.90;69.10
2439;DHT22;14509;47.992;7.848;2023-07-29T03:04:24;22.90;69.10
2439;DHT22;14509;47.992;7.848;2023-07-29T03:06:25;23.80;69.90
2439;DHT22;14509;47.992;7.848;2023-07-29T03:08:27;23.00;68.90
2439;DHT22;14509;47.992;7.848;2023-07-29T03:10:29;23.00;68.80
2439;DHT22;14509;47.992;7.848;2023-07-29T03:12:31;23.00;68.70
2439;DHT22;14509;47.992;7.848;2023-07-29T03:14:33;23.00;68.70
2439;DHT22;14509;47.992;7.848;2023-07-29T03:16:35;23.00;68.60
2439;DHT22;14509;47.992;7.848;2023-07-29T03:18:37;23.00;68.70
2439;DHT22;14509;47.992;7.848;2023-07-29T03:20:39;23.80;69.60
2439;DHT22;14509;47.992;7.848;2023-07-29T03:22:41;23.10;68.50
2439;DHT22;14509;47.992;7.848;2023-07-29T03:24:43;23.10;68.40
2439;DHT22;14509;47.992;7.848;2023-07-29T03:26:45;23.00;68.40
2439;DHT22;14509;47.992;7.848;2023-07-29T03:28:47;23.00;68.60
2439;DHT22;14509;47.992;7.848;2023-07-29T03:30:49;23.00;68.90
2439;DHT22;14509;47.992;7.848;2023-07-29T03:32:51;23.00;69.00
2439;DHT22;14509;47.992;7.848;2023-07-29T03:34:54;23.00;68.80
2439;DHT22;14509;47.992;7.848;2023-07-29T03:36:56;22.90;68.60
2439;DHT22;14509;47.992;7.848;2023-07-29T03:38:58;22.70;68.90
2439;DHT22;14509;47.992;7.848;2023-07-29T03:41:01;22.80;69.20
2439;DHT22;14509;47.992;7.848;2023-07-29T03:43:03;22.80;69.50
2439;DHT22;14509;47.992;7.848;2023-07-29T03:45:06;22.70;69.80
2439;DHT22;14509;47.992;7.848;2023-07-29T03:47:08;22.80;70.10
2439;DHT22;14509;47.992;7.848;2023-07-29T03:49:11;23.00;70.20
2439;DHT22;14509;47.992;7.848;2023-07-29T03:51:14;22.80;69.80
2439;DHT22;14509;47.992;7.848;2023-07-29T03:53:15;22.80;69.70
2439;DHT22;14509;47.992;7.848;2023-07-29T03:55:18;22.90;69.70
2439;DHT22;14509;47.992;7.848;2023-07-29T03:57:20;23.10;69.90
2439;DHT22;14509;47.992;7.848;2023-07-29T03:59:21;22.90;69.70
2439;DHT22;14509;47.992;7.848;2023-07-29T04:01:24;22.90;69.70
2439;DHT22;14509;47.992;7.848;2023-07-29T04:03:26;22.80;69.70
2439;DHT22;14509;47.992;7.848;2023-07-29T04:05:29;22.90;69.90
2439;DHT22;14509;47.992;7.848;2023-07-29T04:07:32;22.90;69.80
2439;DHT22;14509;47.992;7.848;2023-07-29T04:09:34;23.30;69.90
2439;DHT22;14509;47.992;7.848;2023-07-29T04:11:36;23.00;69.90
2439;DHT22;14509;47.992;7.848;2023-07-29T04:13:38;23.00;70.30
2439;DHT22;14509;47.992;7.848;2023-07-29T04:15:40;23.10;69.60
2439;DHT22;14509;47.992;7.848;2023-07-29T04:17:41;24.10;70.40
2439;DHT22;14509;47.992;7.848;2023-07-29T04:19:43;23.20;69.50
2439;DHT22;14509;47.992;7.848;2023-07-29T04:21:45;23.00;70.20
2439;DHT22;14509;47.992;7.848;2023-07-29T04:23:48;23.00;69.50
2439;DHT22;14509;47.992;7.848;2023-07-29T04:25:50;23.00;69.50
2439;DHT22;14509;47.992;7.848;2023-07-29T04:27:52;23.00;69.70
2439;DHT22;14509;47.992;7.848;2023-07-29T04:29:54;23.10;69.80
2439;DHT22;14509;47.992;7.848;2023-07-29T04:31:56;23.10;69.70
2439;DHT22;14509;47.992;7.848;2023-07-29T04:33:57;23.10;70.00
2439;DHT22;14509;47.992;7.848;2023-07-29T04:35:59;23.10;69.80
2439;DHT22;14509;47.992;7.848;2023-07-29T04:38:01;23.30;69.90
2439;DHT22;14509;47.992;7.848;2023-07-29T04:40:06;23.50;69.80
2439;DHT22;14509;47.992;7.848;2023-07-29T04:42:08;23.50;69.40
2439;DHT22;14509;47.992;7.848;2023-07-29T04:44:10;23.60;69.00
2439;DHT22;14509;47.992;7.848;2023-07-29T04:46:12;23.60;68.50
2439;DHT22;14509;47.992;7.848;2023-07-29T04:48:14;23.80;68.20
2439;DHT22;14509;47.992;7.848;2023-07-29T04:50:16;23.90;67.90
2439;DHT22;14509;47.992;7.848;2023-07-29T04:52:18;24.10;67.70
2439;DHT22;14509;47.992;7.848;2023-07-29T04:54:20;24.00;66.90
2439;DHT22;14509;47.992;7.848;2023-07-29T04:56:23;24.30;66.90
2439;DHT22;14509;47.992;7.848;2023-07-29T04:58:25;24.40;66.40
2439;DHT22;14509;47.992;7.848;2023-07-29T05:00:29;24.40;66.00
2439;DHT22;14509;47.992;7.848;2023-07-29T05:02:32;24.50;65.70
2439;DHT22;14509;47.992;7.848;2023-07-29T05:04:34;24.50;65.30
2439;DHT22;14509;47.992;7.848;2023-07-29T05:06:37;24.50;65.00
2439;DHT22;14509;47.992;7.848;2023-07-29T05:08:39;24.50;64.90
2439;DHT22;14509;47.992;7.848;2023-07-29T05:10:48;24.50;64.80
2439;DHT22;14509;47.992;7.848;2023-07-29T05:12:52;24.60;65.00
2439;DHT22;14509;47.992;7.848;2023-07-29T05:14:54;24.60;65.00
2439;DHT22;14509;47.992;7.848;2023-07-29T05:16:56;24.60;64.80
2439;DHT22;14509;47.992;7.848;2023-07-29T05:18:57;24.60;64.50
2439;DHT22;14509;47.992;7.848;2023-07-29T05:20:59;24.70;64.70
2439;DHT22;14509;47.992;7.848;2023-07-29T05:23:01;24.70;64.50
2439;DHT22;14509;47.992;7.848;2023-07-29T05:25:04;24.80;64.10
2439;DHT22;14509;47.992;7.848;2023-07-29T05:27:06;24.90;63.80
2439;DHT22;14509;47.992;7.848;2023-07-29T05:29:10;24.90;63.00
2439;DHT22;14509;47.992;7.848;2023-07-29T05:31:12;25.00;62.40
2439;DHT22;14509;47.992;7.848;2023-07-29T05:33:14;25.10;62.10
2439;DHT22;14509;47.992;7.848;2023-07-29T05:35:16;25.20;62.40
2439;DHT22;14509;47.992;7.848;2023-07-29T05:37:18;25.30;62.70
2439;DHT22;14509;47.992;7.848;2023-07-29T05:39:20;25.40;62.80
2439;DHT22;14509;47.992;7.848;2023-07-29T05:41:22;25.40;63.10
2439;DHT22;14509;47.992;7.848;2023-07-29T05:43:24;25.40;62.80
2439;DHT22;14509;47.992;7.848;2023-07-29T05:45:27;25.50;62.70
2439;DHT22;14509;47.992;7.848;2023-07-29T05:47:31;25.50;63.00
2439;DHT22;14509;47.992;7.848;2023-07-29T05:49:33;25.50;62.80
2439;DHT22;14509;47.992;7.848;2023-07-29T05:51:35;25.60;62.70
2439;DHT22;14509;47.992;7.848;2023-07-29T05:53:37;25.70;62.20
2439;DHT22;14509;47.992;7.848;2023-07-29T05:55:39;25.80;62.10
2439;DHT22;14509;47.992;7.848;2023-07-29T05:57:41;25.90;61.30
2439;DHT22;14509;47.992;7.848;2023-07-29T05:59:43;26.00;60.30
2439;DHT22;14509;47.992;7.848;2023-07-29T06:01:46;26.20;60.10
2439;DHT22;14509;47.992;7.848;2023-07-29T06:03:48;26.30;59.80
2439;DHT22;14509;47.992;7.848;2023-07-29T06:05:50;26.50;59.10
2439;DHT22;14509;47.992;7.848;2023-07-29T06:07:52;26.60;58.60
2439;DHT22;14509;47.992;7.848;2023-07-29T06:09:53;26.70;57.90
2439;DHT22;14509;47.992;7.848;2023-07-29T06:11:56;26.90;57.40
2439;DHT22;14509;47.992;7.848;2023-07-29T06:13:57;27.00;57.20
2439;DHT22;14509;47.992;7.848;2023-07-29T06:15:59;27.00;57.20
2439;DHT22;14509;47.992;7.848;2023-07-29T06:18:02;27.20;57.20
2439;DHT22;14509;47.992;7.848;2023-07-29T06:20:05;27.30;56.40
2439;DHT22;14509;47.992;7.848;2023-07-29T06:22:06;27.40;56.20
2439;DHT22;14509;47.992;7.848;2023-07-29T06:24:08;27.30;55.80
2439;DHT22;14509;47.992;7.848;2023-07-29T06:26:10;27.30;55.50
2439;DHT22;14509;47.992;7.848;2023-07-29T06:28:12;27.30;55.60
2439;DHT22;14509;47.992;7.848;2023-07-29T06:30:14;27.30;55.70
2439;DHT22;14509;47.992;7.848;2023-07-29T06:32:16;27.30;55.10
2439;DHT22;14509;47.992;7.848;2023-07-29T06:34:19;27.30;55.50
2439;DHT22;14509;47.992;7.848;2023-07-29T06:36:21;27.80;56.00
2439;DHT22;14509;47.992;7.848;2023-07-29T06:38:22;27.30;56.10
2439;DHT22;14509;47.992;7.848;2023-07-29T06:40:24;27.40;56.40
2439;DHT22;14509;47.992;7.848;2023-07-29T06:42:26;27.20;56.70
2439;DHT22;14509;47.992;7.848;2023-07-29T06:44:28;27.40;58.10
2439;DHT22;14509;47.992;7.848;2023-07-29T06:46:30;26.80;61.90
2439;DHT22;14509;47.992;7.848;2023-07-29T06:48:31;26.30;63.20
2439;DHT22;14509;47.992;7.848;2023-07-29T06:50:34;25.80;63.60
2439;DHT22;14509;47.992;7.848;2023-07-29T06:52:35;25.40;64.20
2439;DHT22;14509;47.992;7.848;2023-07-29T06:54:37;25.00;65.80
2439;DHT22;14509;47.992;7.848;2023-07-29T06:56:39;24.70;67.10
2439;DHT22;14509;47.992;7.848;2023-07-29T06:58:41;24.60;68.70
2439;DHT22;14509;47.992;7.848;2023-07-29T07:00:43;24.50;69.90
2439;DHT22;14509;47.992;7.848;2023-07-29T07:02:44;24.40;71.10
2439;DHT22;14509;47.992;7.848;2023-07-29T07:04:46;24.40;71.90
2439;DHT22;14509;47.992;7.848;2023-07-29T07:06:49;24.30;72.10
2439;DHT22;14509;47.992;7.848;2023-07-29T07:08:51;24.30;72.70
2439;DHT22;14509;47.992;7.848;2023-07-29T07:10:53;25.30;74.10
2439;DHT22;14509;47.992;7.848;2023-07-29T07:12:55;24.90;74.00
2439;DHT22;14509;47.992;7.848;2023-07-29T07:14:57;24.50;73.30
2439;DHT22;14509;47.992;7.848;2023-07-29T07:16:59;24.60;73.60
2439;DHT22;14509;47.992;7.848;2023-07-29T07:19:01;24.70;73.80
2439;DHT22;14509;47.992;7.848;2023-07-29T07:21:02;24.80;72.90
2439;DHT22;14509;47.992;7.848;2023-07-29T07:23:06;25.00;72.40
2439;DHT22;14509;47.992;7.848;2023-07-29T07:25:11;25.00;71.60
2439;DHT22;14509;47.992;7.848;2023-07-29T07:27:13;25.10;71.50
2439;DHT22;14509;47.992;7.848;2023-07-29T07:29:15;25.20;71.50
2439;DHT22;14509;47.992;7.848;2023-07-29T07:31:18;25.20;72.60
2439;DHT22;14509;47.992;7.848;2023-07-29T07:33:19;25.30;72.00
2439;DHT22;14509;47.992;7.848;2023-07-29T07:35:21;25.40;71.90
2439;DHT22;14509;47.992;7.848;2023-07-29T07:37:23;25.60;71.70
2439;DHT22;14509;47.992;7.848;2023-07-29T07:39:27;25.90;71.10
2439;DHT22;14509;47.992;7.848;2023-07-29T07:41:29;26.60;70.70
2439;DHT22;14509;47.992;7.848;2023-07-29T07:43:31;26.50;70.00
2439;DHT22;14509;47.992;7.848;2023-07-29T07:45:33;26.30;69.20
2439;DHT22;14509;47.992;7.848;2023-07-29T07:47:35;26.30;67.40
2439;DHT22;14509;47.992;7.848;2023-07-29T07:49:37;26.30;67.30
2439;DHT22;14509;47.992;7.848;2023-07-29T07:51:38;26.40;67.70
2439;DHT22;14509;47.992;7.848;2023-07-29T07:53:39;26.50;67.10
2439;DHT22;14509;47.992;7.848;2023-07-29T07:55:43;26.70;67.10
2439;DHT22;14509;47.992;7.848;2023-07-29T07:57:45;26.80;64.60
2439;DHT22;14509;47.992;7.848;2023-07-29T07:59:47;26.90;64.40
2439;DHT22;14509;47.992;7.848;2023-07-29T08:01:49;27.00;65.10
2439;DHT22;14509;47.992;7.848;2023-07-29T08:03:52;27.20;64.50
2439;DHT22;14509;47.992;7.848;2023-07-29T08:05:53;27.40;65.70
2439;DHT22;14509;47.992;7.848;2023-07-29T08:07:56;27.70;65.90
2439;DHT22;14509;47.992;7.848;2023-07-29T08:09:58;28.10;64.60
2439;DHT22;14509;47.992;7.848;2023-07-29T08:12:01;28.30;61.50
2439;DHT22;14509;47.992;7.848;2023-07-29T08:14:03;28.50;58.70
2439;DHT22;14509;47.992;7.848;2023-07-29T08:16:05;28.80;58.80
2439;DHT22;14509;47.992;7.848;2023-07-29T08:18:07;29.00;59.70
2439;DHT22;14509;47.992;7.848;2023-07-29T08:20:09;29.30;61.60
2439;DHT22;14509;47.992;7.848;2023-07-29T08:22:11;29.60;59.40
2439;DHT22;14509;47.992;7.848;2023-07-29T08:24:13;30.00;58.50
2439;DHT22;14509;47.992;7.848;2023-07-29T08:26:15;30.20;56.90
2439;DHT22;14509;47.992;7.848;2023-07-29T08:28:18;30.10;55.20
2439;DHT22;14509;47.992;7.848;2023-07-29T08:30:20;30.30;54.00
2439;DHT22;14509;47.992;7.848;2023-07-29T08:32:22;30.20;54.20
2439;DHT22;14509;47.992;7.848;2023-07-29T08:34:24;30.00;54.90
2439;DHT22;14509;47.992;7.848;2023-07-29T08:36:26;29.90;55.70
2439;DHT22;14509;47.992;7.848;2023-07-29T08:38:28;29.90;57.00
2439;DHT22;14509;47.992;7.848;2023-07-29T08:40:32;29.90;54.60
2439;DHT22;14509;47.992;7.848;2023-07-29T08:42:37;29.90;53.90
2439;DHT22;14509;47.992;7.848;2023-07-29T08:44:42;29.90;54.00
2439;DHT22;14509;47.992;7.848;2023-07-29T08:46:46;30.00;55.00
2439;DHT22;14509;47.992;7.848;2023-07-29T08:48:59;29.90;53.70
2439;DHT22;14509;47.992;7.848;2023-07-29T08:51:04;29.80;53.70
2439;DHT22;14509;47.992;7.848;2023-07-29T08:53:07;29.80;55.90
2439;DHT22;14509;47.992;7.848;2023-07-29T08:55:09;29.70;55.50
2439;DHT22;14509;47.992;7.848;2023-07-29T08:57:12;29.70;53.10
2439;DHT22;14509;47.992;7.848;2023-07-29T08:59:15;29.70;53.60
2439;DHT22;14509;47.992;7.848;2023-07-29T09:01:19;30.20;54.20
2439;DHT22;14509;47.992;7.848;2023-07-29T09:03:21;30.10;53.40
2439;DHT22;14509;47.992;7.848;2023-07-29T09:05:23;30.40;54.00
2439;DHT22;14509;47.992;7.848;2023-07-29T09:07:25;30.60;50.60
2439;DHT22;14509;47.992;7.848;2023-07-29T09:09:27;30.70;50.00
2439;DHT22;14509;47.992;7.848;2023-07-29T09:11:30;30.90;50.80
2439;DHT22;14509;47.992;7.848;2023-07-29T09:13:32;31.10;52.40
2439;DHT22;14509;47.992;7.848;2023-07-29T09:15:36;31.40;50.20
2439;DHT22;14509;47.992;7.848;2023-07-29T09:17:40;31.50;48.70
2439;DHT22;14509;47.992;7.848;2023-07-29T09:19:41;31.60;49.20
2439;DHT22;14509;47.992;7.848;2023-07-29T09:21:46;31.70;49.40
2439;DHT22;14509;47.992;7.848;2023-07-29T09:23:50;32.10;48.80
2439;DHT22;14509;47.992;7.848;2023-07-29T09:26:00;31.90;48.40
2439;DHT22;14509;47.992;7.848;2023-07-29T09:28:08;32.30;49.20
2439;DHT22;14509;47.992;7.848;2023-07-29T09:30:15;32.10;48.80
2439;DHT22;14509;47.992;7.848;2023-07-29T09:32:18;32.10;47.10
2439;DHT22;14509;47.992;7.848;2023-07-29T09:34:22;32.10;46.20
2439;DHT22;14509;47.992;7.848;2023-07-29T09:36:25;32.00;44.50
2439;DHT22;14509;47.992;7.848;2023-07-29T09:38:27;31.80;45.70
2439;DHT22;14509;47.992;7.848;2023-07-29T09:40:34;31.80;45.60
2439;DHT22;14509;47.992;7.848;2023-07-29T09:42:38;31.60;44.90
2439;DHT22;14509;47.992;7.848;2023-07-29T09:44:39;31.50;44.80
2439;DHT22;14509;47.992;7.848;2023-07-29T09:46:46;31.40;45.30
2439;DHT22;14509;47.992;7.848;2023-07-29T09:48:48;31.40;45.10
2439;DHT22;14509;47.992;7.848;2023-07-29T09:50:53;31.50;45.60
2439;DHT22;14509;47.992;7.848;2023-07-29T09:52:56;31.50;45.70
2439;DHT22;14509;47.992;7.848;2023-07-29T09:55:00;31.50;45.10
2439;DHT22;14509;47.992;7.848;2023-07-29T09:57:03;31.80;44.50
2439;DHT22;14509;47.992;7.848;2023-07-29T09:59:05;32.10;44.50
2439;DHT22;14509;47.992;7.848;2023-07-29T10:01:08;32.20;42.30
2439;DHT22;14509;47.992;7.848;2023-07-29T10:03:11;32.40;41.50
2439;DHT22;14509;47.992;7.848;2023-07-29T10:05:13;32.30;41.10
2439;DHT22;14509;47.992;7.848;2023-07-29T10:07:17;32.40;41.90
2439;DHT22;14509;47.992;7.848;2023-07-29T10:09:20;32.10;42.10
2439;DHT22;14509;47.992;7.848;2023-07-29T10:11:23;32.30;42.60
2439;DHT22;14509;47.992;7.848;2023-07-29T10:13:26;32.00;42.30
2439;DHT22;14509;47.992;7.848;2023-07-29T10:15:29;32.10;43.30
2439;DHT22;14509;47.992;7.848;2023-07-29T10:17:34;32.30;43.20
2439;DHT22;14509;47.992;7.848;2023-07-29T10:19:37;32.30;42.60
2439;DHT22;14509;47.992;7.848;2023-07-29T10:21:41;32.00;42.50
2439;DHT22;14509;47.992;7.848;2023-07-29T10:23:47;31.70;41.90
2439;DHT22;14509;47.992;7.848;2023-07-29T10:26:02;31.80;43.30
2439;DHT22;14509;47.992;7.848;2023-07-29T10:28:06;31.60;43.40
2439;DHT22;14509;47.992;7.848;2023-07-29T10:30:10;31.70;43.60
2439;DHT22;14509;47.992;7.848;2023-07-29T10:32:13;31.50;42.50
2439;DHT22;14509;47.992;7.848;2023-07-29T10:34:15;31.80;42.50
2439;DHT22;14509;47.992;7.848;2023-07-29T10:36:17;31.80;42.20
2439;DHT22;14509;47.992;7.848;2023-07-29T10:38:21;31.90;42.70
2439;DHT22;14509;47.992;7.848;2023-07-29T10:40:25;32.00;42.10
2439;DHT22;14509;47.992;7.848;2023-07-29T10:42:27;32.10;42.10
2439;DHT22;14509;47.992;7.848;2023-07-29T10:44:51;32.30;42.30
2439;DHT22;14509;47.992;7.848;2023-07-29T10:46:56;32.70;41.90
2439;DHT22;14509;47.992;7.848;2023-07-29T10:48:58;33.00;41.40
2439;DHT22;14509;47.992;7.848;2023-07-29T10:51:25;33.30;39.60
2439;DHT22;14509;47.992;7.848;2023-07-29T10:53:29;33.40;38.80
2439;DHT22;14509;47.992;7.848;2023-07-29T10:55:35;33.20;39.10
2439;DHT22;14509;47.992;7.848;2023-07-29T10:57:39;33.10;39.40
2439;DHT22;14509;47.992;7.848;2023-07-29T10:59:54;33.20;39.70
2439;DHT22;14509;47.992;7.848;2023-07-29T11:01:57;33.00;39.90
2439;DHT22;14509;47.992;7.848;2023-07-29T11:04:25;33.00;39.40
2439;DHT22;14509;47.992;7.848;2023-07-29T11:06:27;33.20;39.80
2439;DHT22;14509;47.992;7.848;2023-07-29T11:08:30;33.30;39.30
2439;DHT22;14509;47.992;7.848;2023-07-29T11:10:43;33.30;38.70
2439;DHT22;14509;47.992;7.848;2023-07-29T11:12:45;33.30;38.20
2439;DHT22;14509;47.992;7.848;2023-07-29T11:18:12;33.30;38.70
2439;DHT22;14509;47.992;7.848;2023-07-29T11:20:16;33.50;38.50
2439;DHT22;14509;47.992;7.848;2023-07-29T11:22:18;33.60;37.10
2439;DHT22;14509;47.992;7.848;2023-07-29T11:24:20;33.60;37.10
2439;DHT22;14509;47.992;7.848;2023-07-29T11:26:23;33.80;37.30
2439;DHT22;14509;47.992;7.848;2023-07-29T11:28:26;33.50;37.10
2439;DHT22;14509;47.992;7.848;2023-07-29T11:30:28;33.70;37.00
2439;DHT22;14509;47.992;7.848;2023-07-29T11:32:30;33.80;36.80
2439;DHT22;14509;47.992;7.848;2023-07-29T11:34:32;33.90;36.60
2439;DHT22;14509;47.992;7.848;2023-07-29T11:36:34;34.10;35.90
2439;DHT22;14509;47.992;7.848;2023-07-29T11:38:36;34.10;36.10
2439;DHT22;14509;47.992;7.848;2023-07-29T11:40:41;34.20;35.70
2439;DHT22;14509;47.992;7.848;2023-07-29T11:42:44;34.10;35.40
2439;DHT22;14509;47.992;7.848;2023-07-29T11:44:46;34.00;35.90
2439;DHT22;14509;47.992;7.848;2023-07-29T11:46:47;34.10;35.90
2439;DHT22;14509;47.992;7.848;2023-07-29T11:48:49;33.90;35.60
2439;DHT22;14509;47.992;7.848;2023-07-29T11:50:51;34.30;35.60
2439;DHT22;14509;47.992;7.848;2023-07-29T11:52:55;34.30;34.40
2439;DHT22;14509;47.992;7.848;2023-07-29T11:54:57;34.20;34.50
2439;DHT22;14509;47.992;7.848;2023-07-29T11:56:59;34.20;33.80
2439;DHT22;14509;47.992;7.848;2023-07-29T11:59:03;34.10;34.10
2439;DHT22;14509;47.992;7.848;2023-07-29T12:01:05;34.00;34.00
2439;DHT22;14509;47.992;7.848;2023-07-29T12:03:08;33.90;34.30
2439;DHT22;14509;47.992;7.848;2023-07-29T12:05:13;34.00;34.70
2439;DHT22;14509;47.992;7.848;2023-07-29T12:07:17;34.20;34.40
2439;DHT22;14509;47.992;7.848;2023-07-29T12:09:20;34.20;34.60
2439;DHT22;14509;47.992;7.848;2023-07-29T12:11:22;34.40;34.60
2439;DHT22;14509;47.992;7.848;2023-07-29T12:13:24;34.50;34.50
2439;DHT22;14509;47.992;7.848;2023-07-29T12:15:29;34.60;34.30
2439;DHT22;14509;47.992;7.848;2023-07-29T12:17:31;34.80;34.10
2439;DHT22;14509;47.992;7.848;2023-07-29T12:19:34;34.80;33.60
2439;DHT22;14509;47.992;7.848;2023-07-29T12:21:36;34.80;33.80
2439;DHT22;14509;47.992;7.848;2023-07-29T12:23:38;34.80;33.70
2439;DHT22;14509;47.992;7.848;2023-07-29T12:25:40;34.70;33.50
2439;DHT22;14509;47.992;7.848;2023-07-29T12:27:43;34.60;33.30
2439;DHT22;14509;47.992;7.848;2023-07-29T12:29:45;34.80;34.40
2439;DHT22;14509;47.992;7.848;2023-07-29T12:31:57;34.80;33.20
2439;DHT22;14509;47.992;7.848;2023-07-29T12:33:59;34.70;33.40
2439;DHT22;14509;47.992;7.848;2023-07-29T12:36:02;34.60;33.70
2439;DHT22;14509;47.992;7.848;2023-07-29T12:38:04;34.50;34.10
2439;DHT22;14509;47.992;7.848;2023-07-29T12:40:07;34.30;34.30
2439;DHT22;14509;47.992;7.848;2023-07-29T12:42:09;34.20;34.50
2439;DHT22;14509;47.992;7.848;2023-07-29T12:44:11;34.10;34.40
2439;DHT22;14509;47.992;7.848;2023-07-29T12:46:13;33.90;35.00
2439;DHT22;14509;47.992;7.848;2023-07-29T12:48:17;33.90;35.10
2439;DHT22;14509;47.992;7.848;2023-07-29T12:50:19;34.00;35.50
2439;DHT22;14509;47.992;7.848;2023-07-29T12:52:21;33.70;35.70
2439;DHT22;14509;47.992;7.848;2023-07-29T12:54:23;33.80;35.80
2439;DHT22;14509;47.992;7.848;2023-07-29T12:56:26;33.90;35.70
2439;DHT22;14509;47.992;7.848;2023-07-29T12:58:28;33.80;35.50
2439;DHT22;14509;47.992;7.848;2023-07-29T13:00:30;34.00;35.50
2439;DHT22;14509;47.992;7.848;2023-07-29T13:02:32;34.10;35.60
2439;DHT22;14509;47.992;7.848;2023-07-29T13:04:36;34.10;35.00
2439;DHT22;14509;47.992;7.848;2023-07-29T13:06:38;34.10;35.30
2439;DHT22;14509;47.992;7.848;2023-07-29T13:08:41;34.10;35.30
2439;DHT22;14509;47.992;7.848;2023-07-29T13:10:43;34.20;35.70
2439;DHT22;14509;47.992;7.848;2023-07-29T13:12:45;34.20;35.40